Time,TemperatureF,DewpointF,PressureIn,WindDirection,WindDirectionDegrees,WindSpeedMPH,WindSpeedGustMPH,Humidity,HourlyPrecipIn,Conditions,Clouds,dailyrainin,SoftwareType,DateUTC
2013-02-14 00:02:00,65.0,60.0,29.98,NW,316,2.0,3.0,84,99.99,,,-99.99,,2013-02-14 05:02:00,
2013-02-14 00:11:00,65.0,60.0,29.98,NW,316,2.0,3.0,84,99.99,,,-99.99,,2013-02-14 05:11:00,
2013-02-14 00:22:00,65.0,59.0,29.97,NNW,339,2.0,4.0,82,99.99,,,-99.99,,2013-02-14 05:22:00,
2013-02-14 00:32:00,65.0,59.0,29.97,NW,321,2.0,4.0,80,99.99,,,-99.99,,2013-02-14 05:32:00,
2013-02-14 00:42:00,65.0,59.0,29.97,NW,321,2.0,4.0,80,99.99,,,-99.99,,2013-02-14 05:42:00,
2013-02-14 00:52:00,65.0,59.0,29.98,NW,315,2.0,4.0,81,99.99,,,-99.99,,2013-02-14 05:52:00,
2013-02-14 01:02:00,65.0,59.0,29.98,WNW,287,3.0,5.0,81,99.99,,,-99.99,,2013-02-14 06:02:00,
2013-02-14 01:11:00,65.0,59.0,29.97,WNW,285,2.0,3.0,80,99.99,,,-99.99,,2013-02-14 06:11:00,
2013-02-14 01:21:00,65.0,59.0,29.97,WNW,285,2.0,3.0,80,99.99,,,-99.99,,2013-02-14 06:21:00,
2013-02-14 01:32:00,65.0,59.0,29.97,WNW,302,1.0,2.0,81,99.99,,,-99.99,,2013-02-14 06:32:00,
2013-02-14 01:42:00,65.0,59.0,29.97,WNW,302,1.0,2.0,81,99.99,,,-99.99,,2013-02-14 06:42:00,
2013-02-14 01:52:00,64.0,58.0,29.96,North,7,2.0,4.0,82,99.99,,,-99.99,,2013-02-14 06:52:00,
2013-02-14 02:01:00,64.0,60.0,29.97,NW,309,3.0,5.0,86,99.99,,,-99.99,,2013-02-14 07:01:00,
2013-02-14 02:11:00,63.0,59.0,29.96,NW,311,3.0,6.0,86,99.99,,,-99.99,,2013-02-14 07:11:00,
2013-02-14 02:21:00,63.0,59.0,29.96,NW,311,3.0,6.0,86,99.99,,,-99.99,,2013-02-14 07:21:00,
2013-02-14 02:32:00,63.0,59.0,29.95,NNW,330,2.0,3.0,87,99.99,,,-99.99,,2013-02-14 07:32:00,
2013-02-14 02:42:00,63.0,59.0,29.95,NNW,330,2.0,3.0,87,99.99,,,-99.99,,2013-02-14 07:42:00,
2013-02-14 02:52:00,63.0,59.0,29.95,NW,314,2.0,3.0,87,99.99,,,-99.99,,2013-02-14 07:52:00,
2013-02-14 03:01:00,62.0,58.0,29.94,NW,323,1.0,3.0,88,99.99,,,-99.99,,2013-02-14 08:01:00,
2013-02-14 03:11:00,62.0,58.0,29.94,NW,323,1.0,3.0,88,99.99,,,-99.99,,2013-02-14 08:11:00,
2013-02-14 03:21:00,62.0,58.0,29.96,North,0,0.0,0.0,88,99.99,,,-99.99,,2013-02-14 08:21:00,
2013-02-14 03:32:00,62.0,59.0,29.95,South,170,2.0,3.0,91,99.99,,,-99.99,,2013-02-14 08:32:00,
2013-02-14 03:43:00,62.0,59.0,29.95,South,170,2.0,3.0,91,99.99,,,-99.99,,2013-02-14 08:43:00,
2013-02-14 03:52:00,62.0,59.0,29.94,North,0,0.0,0.0,91,99.99,,,-99.99,,2013-02-14 08:52:00,
2013-02-14 04:02:00,62.0,60.0,29.95,North,0,0.0,0.0,92,99.99,,,-99.99,,2013-02-14 09:02:00,
2013-02-14 04:11:00,62.0,60.0,29.95,SSE,162,0.0,1.0,92,99.99,,,-99.99,,2013-02-14 09:11:00,
2013-02-14 04:21:00,62.0,60.0,29.95,SSE,162,0.0,1.0,92,99.99,,,-99.99,,2013-02-14 09:21:00,
2013-02-14 04:32:00,63.0,61.0,29.95,North,0,0.0,0.0,93,99.99,,,-99.99,,2013-02-14 09:32:00,
2013-02-14 04:42:00,63.0,61.0,29.95,North,0,0.0,0.0,93,99.99,,,-99.99,,2013-02-14 09:42:00,
2013-02-14 04:52:00,63.0,61.0,29.94,North,0,0.0,0.0,93,99.99,,,-99.99,,2013-02-14 09:52:00,
2013-02-14 05:02:00,63.0,61.0,29.93,North,0,0.0,0.0,94,99.99,,,-99.99,,2013-02-14 10:02:00,
2013-02-14 05:11:00,63.0,61.0,29.93,North,0,0.0,0.0,94,99.99,,,-99.99,,2013-02-14 10:11:00,
2013-02-14 05:21:00,63.0,61.0,29.93,North,0,0.0,0.0,94,99.99,,,-99.99,,2013-02-14 10:21:00,
2013-02-14 05:31:00,63.0,61.0,29.94,North,0,0.0,0.0,94,99.99,,,-99.99,,2013-02-14 10:31:00,
2013-02-14 05:42:00,63.0,61.0,29.94,North,0,0.0,0.0,94,99.99,,,-99.99,,2013-02-14 10:42:00,
2013-02-14 05:52:00,62.0,60.0,29.93,ESE,113,2.0,3.0,94,99.99,,,-99.99,,2013-02-14 10:52:00,
2013-02-14 06:02:00,62.0,61.0,29.93,North,0,0.0,0.0,95,99.99,,,-99.99,,2013-02-14 11:02:00,
2013-02-14 06:11:00,62.0,61.0,29.94,SE,138,3.0,5.0,95,99.99,,,-99.99,,2013-02-14 11:11:00,
2013-02-14 06:21:00,62.0,61.0,29.94,SE,138,3.0,5.0,95,99.99,,,-99.99,,2013-02-14 11:21:00,
2013-02-14 06:32:00,62.0,61.0,29.96,SE,128,1.0,3.0,96,99.99,,,-99.99,,2013-02-14 11:32:00,
2013-02-14 06:42:00,62.0,61.0,29.96,SE,128,1.0,3.0,96,99.99,,,-99.99,,2013-02-14 11:42:00,
2013-02-14 06:52:00,62.0,61.0,29.96,South,179,0.0,2.0,96,99.99,,,-99.99,,2013-02-14 11:52:00,
2013-02-14 07:02:00,62.0,61.0,29.95,SSE,155,4.0,5.0,96,99.99,,,-99.99,,2013-02-14 12:02:00,
2013-02-14 07:12:00,62.0,61.0,29.95,SSE,155,4.0,5.0,96,99.99,,,-99.99,,2013-02-14 12:12:00,
2013-02-14 07:22:00,63.0,62.0,29.95,SSE,156,3.0,5.0,96,99.99,,,-99.99,,2013-02-14 12:22:00,
2013-02-14 07:32:00,63.0,62.0,29.96,SSE,163,6.0,9.0,95,99.99,,,-99.99,,2013-02-14 12:32:00,
2013-02-14 07:42:00,63.0,61.0,29.98,South,173,5.0,7.0,93,99.99,,,-99.99,,2013-02-14 12:42:00,
2013-02-14 07:53:00,63.0,61.0,29.98,South,173,5.0,7.0,93,99.99,,,-99.99,,2013-02-14 12:53:00,
2013-02-14 08:02:00,63.0,61.0,29.98,South,177,4.0,6.0,92,99.99,,,-99.99,,2013-02-14 13:02:00,
2013-02-14 08:11:00,64.0,62.0,29.98,SSE,150,4.0,6.0,92,99.99,,,-99.99,,2013-02-14 13:11:00,
2013-02-14 08:21:00,64.0,62.0,29.98,SSE,150,4.0,6.0,92,99.99,,,-99.99,,2013-02-14 13:21:00,
2013-02-14 08:32:00,65.0,62.0,29.98,SSE,150,3.0,5.0,90,99.99,,,-99.99,,2013-02-14 13:32:00,
2013-02-14 08:42:00,65.0,62.0,29.99,SE,129,3.0,5.0,91,99.99,,,-99.99,,2013-02-14 13:42:00,
2013-02-14 08:52:00,65.0,62.0,29.99,SE,129,3.0,5.0,91,99.99,,,-99.99,,2013-02-14 13:52:00,
2013-02-14 09:01:00,66.0,63.0,29.99,ESE,110,4.0,6.0,89,99.99,,,-99.99,,2013-02-14 14:01:00,
2013-02-14 09:11:00,68.0,60.0,29.98,SSE,148,4.0,7.0,76,99.99,,,-99.99,,2013-02-14 14:11:00,
2013-02-14 09:21:00,68.0,60.0,29.98,SSE,148,4.0,7.0,76,99.99,,,-99.99,,2013-02-14 14:21:00,
2013-02-14 09:31:00,69.0,61.0,29.99,East,98,3.0,7.0,77,99.99,,,-99.99,,2013-02-14 14:31:00,
2013-02-14 09:42:00,69.0,61.0,29.99,East,98,3.0,7.0,77,99.99,,,-99.99,,2013-02-14 14:42:00,
2013-02-14 09:52:00,69.0,61.0,29.99,ESE,117,2.0,4.0,76,99.99,,,-99.99,,2013-02-14 14:52:00,
2013-02-14 10:02:00,69.0,60.0,30.01,North,11,3.0,4.0,74,99.99,,,-99.99,,2013-02-14 15:02:00,
2013-02-14 10:11:00,69.0,61.0,30.00,NE,55,3.0,7.0,75,99.99,,,-99.99,,2013-02-14 15:11:00,
2013-02-14 10:21:00,69.0,61.0,30.00,NE,55,3.0,7.0,75,99.99,,,-99.99,,2013-02-14 15:21:00,
2013-02-14 10:32:00,70.0,61.0,30.00,NNE,21,4.0,8.0,73,99.99,,,-99.99,,2013-02-14 15:32:00,
2013-02-14 10:42:00,70.0,61.0,30.00,NNE,21,4.0,8.0,73,99.99,,,-99.99,,2013-02-14 15:42:00,
2013-02-14 10:52:00,70.0,62.0,30.00,NNE,17,3.0,7.0,76,99.99,,,-99.99,,2013-02-14 15:52:00,
2013-02-14 11:02:00,69.0,61.0,29.99,North,352,3.0,7.0,77,99.99,,,-99.99,,2013-02-14 16:02:00,
2013-02-14 11:11:00,69.0,61.0,29.99,North,359,4.0,6.0,76,99.99,,,-99.99,,2013-02-14 16:11:00,
2013-02-14 11:21:00,69.0,61.0,29.99,North,359,4.0,6.0,76,99.99,,,-99.99,,2013-02-14 16:21:00,
2013-02-14 11:32:00,69.0,61.0,30.00,NNW,342,5.0,8.0,76,99.99,,,-99.99,,2013-02-14 16:32:00,
2013-02-14 11:42:00,69.0,61.0,30.00,NNW,342,5.0,8.0,76,99.99,,,-99.99,,2013-02-14 16:42:00,
2013-02-14 11:51:00,69.0,60.0,30.00,NNW,335,5.0,9.0,73,99.99,,,-99.99,,2013-02-14 16:51:00,
2013-02-14 12:01:00,68.0,63.0,30.01,NNE,28,8.0,15.0,85,99.99,,,-99.99,,2013-02-14 17:01:00,
2013-02-14 12:11:00,65.0,61.0,30.01,NNW,339,11.0,20.0,88,99.99,,,-99.99,,2013-02-14 17:11:00,
2013-02-14 12:21:00,65.0,61.0,30.01,NNW,339,11.0,20.0,88,99.99,,,-99.99,,2013-02-14 17:21:00,
2013-02-14 12:32:00,64.0,63.0,30.00,NNW,336,7.0,15.0,95,99.99,,,-99.99,,2013-02-14 17:32:00,
2013-02-14 12:42:00,64.0,63.0,30.00,NNW,336,7.0,15.0,95,99.99,,,-99.99,,2013-02-14 17:42:00,
2013-02-14 12:52:00,64.0,63.0,30.00,North,354,7.0,14.0,98,99.99,,,-99.99,,2013-02-14 17:52:00,
2013-02-14 13:01:00,63.0,63.0,30.01,North,356,6.0,12.0,100,99.99,,,-99.99,,2013-02-14 18:01:00,
2013-02-14 13:11:00,63.0,63.0,30.01,North,356,6.0,12.0,100,99.99,,,-99.99,,2013-02-14 18:11:00,
2013-02-14 13:23:00,63.0,63.0,29.99,North,349,10.0,17.0,100,99.99,,,-99.99,,2013-02-14 18:23:00,
2013-02-14 13:32:00,63.0,63.0,29.98,North,354,8.0,13.0,100,99.99,,,-99.99,,2013-02-14 18:32:00,
2013-02-14 13:42:00,63.0,63.0,29.98,North,354,8.0,13.0,100,99.99,,,-99.99,,2013-02-14 18:42:00,
2013-02-14 13:52:00,63.0,63.0,29.98,North,353,10.0,18.0,100,99.99,,,-99.99,,2013-02-14 18:52:00,
2013-02-14 14:02:00,62.0,62.0,29.97,NNW,346,10.0,19.0,100,99.99,,,-99.99,,2013-02-14 19:02:00,
2013-02-14 14:11:00,62.0,62.0,29.97,NNW,345,10.0,18.0,100,99.99,,,-99.99,,2013-02-14 19:11:00,
2013-02-14 14:21:00,62.0,62.0,29.97,NNW,345,10.0,18.0,100,99.99,,,-99.99,,2013-02-14 19:21:00,
2013-02-14 14:32:00,62.0,62.0,29.96,NW,309,7.0,13.0,100,99.99,,,-99.99,,2013-02-14 19:32:00,
2013-02-14 14:42:00,62.0,62.0,29.96,NW,309,7.0,13.0,100,99.99,,,-99.99,,2013-02-14 19:42:00,
2013-02-14 14:52:00,63.0,63.0,29.95,North,349,6.0,15.0,100,99.99,,,-99.99,,2013-02-14 19:52:00,
2013-02-14 15:01:00,62.0,62.0,29.95,NNW,333,6.0,9.0,100,99.99,,,-99.99,,2013-02-14 20:01:00,
2013-02-14 15:11:00,62.0,62.0,29.93,North,1,5.0,9.0,100,99.99,,,-99.99,,2013-02-14 20:11:00,
2013-02-14 15:21:00,62.0,62.0,29.93,North,1,5.0,9.0,100,99.99,,,-99.99,,2013-02-14 20:21:00,
2013-02-14 15:32:00,62.0,62.0,29.95,NNW,345,5.0,9.0,100,99.99,,,-99.99,,2013-02-14 20:32:00,
2013-02-14 15:42:00,62.0,62.0,29.95,NNW,345,5.0,9.0,100,99.99,,,-99.99,,2013-02-14 20:42:00,
2013-02-14 15:52:00,62.0,62.0,29.96,NNW,328,3.0,9.0,100,99.99,,,-99.99,,2013-02-14 20:52:00,
2013-02-14 16:02:00,62.0,62.0,29.97,North,7,1.0,5.0,100,99.99,,,-99.99,,2013-02-14 21:02:00,
2013-02-14 16:11:00,62.0,62.0,29.97,North,7,1.0,5.0,100,99.99,,,-99.99,,2013-02-14 21:11:00,
2013-02-14 16:21:00,63.0,63.0,29.96,NW,323,2.0,6.0,100,99.99,,,-99.99,,2013-02-14 21:21:00,
2013-02-14 16:31:00,62.0,62.0,29.96,NNW,345,3.0,8.0,100,99.99,,,-99.99,,2013-02-14 21:31:00,
2013-02-14 16:42:00,62.0,62.0,29.96,NNW,345,3.0,8.0,100,99.99,,,-99.99,,2013-02-14 21:42:00,
2013-02-14 16:52:00,62.0,62.0,29.97,NNW,343,4.0,7.0,100,99.99,,,-99.99,,2013-02-14 21:52:00,
2013-02-14 17:02:00,63.0,63.0,29.98,North,1,2.0,4.0,100,99.99,,,-99.99,,2013-02-14 22:02:00,
2013-02-14 17:11:00,62.0,62.0,29.98,NW,321,3.0,6.0,100,99.99,,,-99.99,,2013-02-14 22:11:00,
2013-02-14 17:21:00,62.0,62.0,29.98,NW,321,3.0,6.0,100,99.99,,,-99.99,,2013-02-14 22:21:00,
2013-02-14 17:32:00,62.0,62.0,29.99,West,280,3.0,7.0,100,99.99,,,-99.99,,2013-02-14 22:32:00,
2013-02-14 17:42:00,62.0,62.0,29.99,West,280,3.0,7.0,100,99.99,,,-99.99,,2013-02-14 22:42:00,
2013-02-14 17:52:00,62.0,62.0,29.97,North,353,3.0,9.0,100,99.99,,,-99.99,,2013-02-14 22:52:00,
2013-02-14 18:01:00,62.0,62.0,29.96,North,7,5.0,8.0,100,99.99,,,-99.99,,2013-02-14 23:01:00,
2013-02-14 18:11:00,62.0,62.0,29.96,North,7,5.0,8.0,100,99.99,,,-99.99,,2013-02-14 23:11:00,
2013-02-14 18:21:00,62.0,62.0,29.97,North,1,4.0,8.0,100,99.99,,,-99.99,,2013-02-14 23:21:00,
2013-02-14 18:32:00,62.0,62.0,29.99,North,7,3.0,5.0,100,99.99,,,-99.99,,2013-02-14 23:32:00,
2013-02-14 18:42:00,62.0,62.0,29.99,North,7,3.0,5.0,100,99.99,,,-99.99,,2013-02-14 23:42:00,
2013-02-14 18:52:00,62.0,62.0,30.00,SE,124,0.0,2.0,100,99.99,,,-99.99,,2013-02-14 23:52:00,
2013-02-14 19:01:00,62.0,62.0,30.01,North,0,0.0,0.0,100,99.99,,,-99.99,,2013-02-15 00:01:00,
2013-02-14 19:11:00,62.0,62.0,30.01,North,0,0.0,0.0,100,99.99,,,-99.99,,2013-02-15 00:11:00,
2013-02-14 19:22:00,62.0,62.0,30.02,North,0,0.0,0.0,100,99.99,,,-99.99,,2013-02-15 00:22:00,
2013-02-14 19:32:00,62.0,62.0,30.03,North,0,0.0,0.0,100,99.99,,,-99.99,,2013-02-15 00:32:00,
2013-02-14 19:42:00,62.0,62.0,30.03,North,0,0.0,0.0,100,99.99,,,-99.99,,2013-02-15 00:42:00,
2013-02-14 19:52:00,62.0,62.0,30.02,North,0,0.0,0.0,100,99.99,,,-99.99,,2013-02-15 00:52:00,
2013-02-14 20:02:00,62.0,62.0,30.00,SE,124,2.0,8.0,100,99.99,,,-99.99,,2013-02-15 01:02:00,
2013-02-14 20:11:00,62.0,62.0,30.00,SE,124,2.0,8.0,100,99.99,,,-99.99,,2013-02-15 01:11:00,
2013-02-14 20:21:00,62.0,62.0,30.01,North,0,0.0,0.0,100,99.99,,,-99.99,,2013-02-15 01:21:00,
2013-02-14 20:32:00,62.0,62.0,30.03,NNE,14,0.0,4.0,100,99.99,,,-99.99,,2013-02-15 01:32:00,
2013-02-14 20:41:00,62.0,62.0,30.03,NNE,14,0.0,4.0,100,99.99,,,-99.99,,2013-02-15 01:41:00,
2013-02-14 20:52:00,62.0,62.0,30.03,NNW,335,1.0,4.0,100,99.99,,,-99.99,,2013-02-15 01:52:00,
2013-02-14 21:01:00,61.0,61.0,30.01,NNW,345,4.0,7.0,100,99.99,,,-99.99,,2013-02-15 02:01:00,
2013-02-14 21:11:00,61.0,61.0,30.05,WNW,287,2.0,5.0,100,99.99,,,-99.99,,2013-02-15 02:11:00,
2013-02-14 21:21:00,61.0,61.0,30.05,WNW,287,2.0,5.0,100,99.99,,,-99.99,,2013-02-15 02:21:00,
2013-02-14 21:32:00,61.0,61.0,30.04,North,0,0.0,0.0,100,99.99,,,-99.99,,2013-02-15 02:32:00,
2013-02-14 21:41:00,61.0,61.0,30.04,North,0,0.0,0.0,100,99.99,,,-99.99,,2013-02-15 02:41:00,
2013-02-14 21:52:00,61.0,61.0,30.03,North,0,0.0,0.0,100,99.99,,,-99.99,,2013-02-15 02:52:00,
2013-02-14 22:02:00,61.0,61.0,30.02,North,0,0.0,0.0,100,99.99,,,-99.99,,2013-02-15 03:02:00,
2013-02-14 22:11:00,61.0,61.0,30.02,North,0,0.0,0.0,100,99.99,,,-99.99,,2013-02-15 03:11:00,
2013-02-14 22:22:00,61.0,61.0,30.02,North,0,0.0,0.0,100,99.99,,,-99.99,,2013-02-15 03:22:00,
2013-02-14 22:32:00,61.0,61.0,30.01,North,0,0.0,0.0,100,99.99,,,-99.99,,2013-02-15 03:32:00,
2013-02-14 22:42:00,61.0,61.0,30.01,North,0,0.0,0.0,100,99.99,,,-99.99,,2013-02-15 03:42:00,
2013-02-14 22:52:00,61.0,61.0,30.00,North,0,0.0,0.0,100,99.99,,,-99.99,,2013-02-15 03:52:00,
2013-02-14 23:01:00,61.0,61.0,30.00,SE,135,2.0,5.0,100,99.99,,,-99.99,,2013-02-15 04:01:00,
2013-02-14 23:11:00,61.0,61.0,30.01,North,0,0.0,0.0,100,99.99,,,-99.99,,2013-02-15 04:11:00,
2013-02-14 23:21:00,61.0,61.0,30.01,North,0,0.0,0.0,100,99.99,,,-99.99,,2013-02-15 04:21:00,
2013-02-14 23:32:00,61.0,61.0,30.01,SE,127,1.0,4.0,100,99.99,,,-99.99,,2013-02-15 04:32:00,
2013-02-14 23:42:00,61.0,61.0,30.01,SE,127,1.0,4.0,100,99.99,,,-99.99,,2013-02-15 04:42:00,
2013-02-14 23:52:00,61.0,61.0,30.01,South,176,1.0,5.0,100,99.99,,,-99.99,,2013-02-15 04:52:00,